PWSweather.com
Personal Weather Stations
Station Observations
WD4JKH
Forsyth, GA 31029

Forsyth, GA 31029

Lat: 33.033225, Lon: -83.927995

Elevation: 709

Station Type: Davis Vantage VUE

High Low Average
Temperature 50.6°F10.3°C 39.8°F4.3°C 45.0°F7.2°C
Dew Point 42.4°F5.8°C 35.2°F1.8°C 38.7°F3.7°C
Winds 15.5 mph 24.9 kmh 1.7 mph 2.7 kmh 7.0 mph E11.3 kmh E
Wind Gusts 25.0 mph40.2 kmh 5.0 mph8.0 kmh 15.0 mph24.1 kmh
Humidity 96% 56% 80%
Pressure 30.47 in1031.8 mb 30.30 in1026.1 mb -
Precipitation 0.39 in9.9 mm - -
Hour Temp Dew Point Humidity Winds Wind Gusts Pressure Precip Precip Rate Daily Precip Total
12:04 AM 50.6°F10.3°C 36.0°F2.2°C 57% 2.2 mph NW3.5 kmh NW 7.0 mph11.3 kmh 30.34 in1027.4 mb 0.00 in0.0 mm 0.00 in0.0 mm 0.00 in0.0 mm
12:10 AM 50.6°F10.3°C 35.5°F1.9°C 56% 1.7 mph NNW2.7 kmh NNW 5.0 mph8.0 kmh 30.34 in1027.4 mb 0.00 in0.0 mm 0.00 in0.0 mm 0.00 in0.0 mm
12:15 AM 50.6°F10.3°C 35.5°F1.9°C 56% 1.7 mph NW2.7 kmh NW 5.0 mph8.0 kmh 30.34 in1027.4 mb 0.00 in0.0 mm 0.00 in0.0 mm 0.00 in0.0 mm
12:20 AM 50.6°F10.3°C 36.0°F2.2°C 57% 2.1 mph NNW3.4 kmh NNW 5.0 mph8.0 kmh 30.34 in1027.4 mb 0.00 in0.0 mm 0.00 in0.0 mm 0.00 in0.0 mm
12:25 AM 50.5°F10.3°C 35.9°F2.2°C 57% 2.7 mph NW4.3 kmh NW 5.0 mph8.0 kmh 30.34 in1027.4 mb 0.00 in0.0 mm 0.00 in0.0 mm 0.00 in0.0 mm
12:30 AM 50.5°F10.3°C 36.3°F2.4°C 58% 3.3 mph NNW5.3 kmh NNW 8.0 mph12.9 kmh 30.34 in1027.4 mb 0.00 in0.0 mm 0.00 in0.0 mm 0.00 in0.0 mm
12:36 AM 50.4°F10.2°C 36.3°F2.4°C 58% 4.3 mph NNW6.9 kmh NNW 10.0 mph16.1 kmh 30.34 in1027.4 mb 0.00 in0.0 mm 0.00 in0.0 mm 0.00 in0.0 mm
12:41 AM 50.4°F10.2°C 36.3°F2.4°C 58% 3.3 mph NNW5.3 kmh NNW 10.0 mph16.1 kmh 30.34 in1027.4 mb 0.00 in0.0 mm 0.00 in0.0 mm 0.00 in0.0 mm
12:46 AM 50.3°F10.2°C 36.2°F2.3°C 58% 4.3 mph NW6.9 kmh NW 10.0 mph16.1 kmh 30.34 in1027.4 mb 0.00 in0.0 mm 0.00 in0.0 mm 0.00 in0.0 mm
12:51 AM 50.3°F10.2°C 36.1°F2.3°C 58% 4.4 mph NNW7.1 kmh NNW 10.0 mph16.1 kmh 30.34 in1027.4 mb 0.00 in0.0 mm 0.00 in0.0 mm 0.00 in0.0 mm
12:56 AM 50.2°F10.1°C 36.4°F2.4°C 59% 2.3 mph NNW3.7 kmh NNW 8.0 mph12.9 kmh 30.34 in1027.4 mb 0.00 in0.0 mm 0.00 in0.0 mm 0.00 in0.0 mm
01:02 AM 50.2°F10.1°C 36.1°F2.3°C 58% 5.0 mph NNW8.0 kmh NNW 9.0 mph14.5 kmh 30.34 in1027.4 mb 0.00 in0.0 mm 0.00 in0.0 mm 0.00 in0.0 mm
01:07 AM 50.2°F10.1°C 36.1°F2.3°C 58% 4.5 mph NNW7.2 kmh NNW 9.0 mph14.5 kmh 30.34 in1027.4 mb 0.00 in0.0 mm 0.00 in0.0 mm 0.00 in0.0 mm
01:12 AM 50.1°F10.1°C 36.0°F2.2°C 58% 4.8 mph NNW7.7 kmh NNW 9.0 mph14.5 kmh 30.33 in1027.1 mb 0.00 in0.0 mm 0.00 in0.0 mm 0.00 in0.0 mm
01:17 AM 50.1°F10.1°C 36.0°F2.2°C 58% 4.9 mph NNW7.9 kmh NNW 12.0 mph19.3 kmh 30.33 in1027.1 mb 0.00 in0.0 mm 0.00 in0.0 mm 0.00 in0.0 mm
01:22 AM 50.0°F10.0°C 35.9°F2.2°C 58% 3.0 mph NNW4.8 kmh NNW 12.0 mph19.3 kmh 30.33 in1027.1 mb 0.00 in0.0 mm 0.00 in0.0 mm 0.00 in0.0 mm
01:28 AM 50.0°F10.0°C 35.8°F2.1°C 58% 3.2 mph NNW5.1 kmh NNW 12.0 mph19.3 kmh 30.32 in1026.8 mb 0.00 in0.0 mm 0.00 in0.0 mm 0.00 in0.0 mm
01:33 AM 50.0°F10.0°C 35.9°F2.2°C 58% 3.0 mph N4.8 kmh N 9.0 mph14.5 kmh 30.32 in1026.8 mb 0.00 in0.0 mm 0.00 in0.0 mm 0.00 in0.0 mm
01:38 AM 50.0°F10.0°C 36.3°F2.4°C 59% 3.7 mph N6.0 kmh N 9.0 mph14.5 kmh 30.32 in1026.8 mb 0.00 in0.0 mm 0.00 in0.0 mm 0.00 in0.0 mm
01:43 AM 49.9°F9.9°C 35.8°F2.1°C 58% 4.2 mph NNW6.8 kmh NNW 9.0 mph14.5 kmh 30.32 in1026.8 mb 0.00 in0.0 mm 0.00 in0.0 mm 0.00 in0.0 mm
01:48 AM 49.9°F9.9°C 35.8°F2.1°C 58% 3.8 mph N6.1 kmh N 9.0 mph14.5 kmh 30.31 in1026.4 mb 0.00 in0.0 mm 0.00 in0.0 mm 0.00 in0.0 mm
01:54 AM 49.8°F9.9°C 36.0°F2.2°C 59% 4.4 mph N7.1 kmh N 9.0 mph14.5 kmh 30.31 in1026.4 mb 0.00 in0.0 mm 0.00 in0.0 mm 0.00 in0.0 mm
01:59 AM 49.8°F9.9°C 36.1°F2.3°C 59% 4.5 mph N7.2 kmh N 11.0 mph17.7 kmh 30.31 in1026.4 mb 0.00 in0.0 mm 0.00 in0.0 mm 0.00 in0.0 mm
02:04 AM 49.7°F9.8°C 36.0°F2.2°C 59% 4.9 mph N7.9 kmh N 11.0 mph17.7 kmh 30.31 in1026.4 mb 0.00 in0.0 mm 0.00 in0.0 mm 0.00 in0.0 mm
02:09 AM 49.7°F9.8°C 36.4°F2.4°C 60% 5.0 mph N8.0 kmh N 11.0 mph17.7 kmh 30.31 in1026.4 mb 0.00 in0.0 mm 0.00 in0.0 mm 0.00 in0.0 mm
02:14 AM 49.6°F9.8°C 36.3°F2.4°C 60% 4.8 mph N7.7 kmh N 11.0 mph17.7 kmh 30.31 in1026.4 mb 0.00 in0.0 mm 0.00 in0.0 mm 0.00 in0.0 mm
02:20 AM 49.6°F9.8°C 36.4°F2.4°C 60% 4.1 mph N6.6 kmh N 11.0 mph17.7 kmh 30.32 in1026.8 mb 0.00 in0.0 mm 0.00 in0.0 mm 0.00 in0.0 mm
02:25 AM 49.5°F9.7°C 36.3°F2.4°C 60% 5.8 mph N9.3 kmh N 11.0 mph17.7 kmh 30.31 in1026.4 mb 0.00 in0.0 mm 0.00 in0.0 mm 0.00 in0.0 mm
02:30 AM 49.5°F9.7°C 36.2°F2.3°C 60% 3.5 mph N5.6 kmh N 11.0 mph17.7 kmh 30.31 in1026.4 mb 0.00 in0.0 mm 0.00 in0.0 mm 0.00 in0.0 mm
02:35 AM 49.5°F9.7°C 36.3°F2.4°C 60% 4.8 mph NNE7.7 kmh NNE 11.0 mph17.7 kmh 30.31 in1026.4 mb 0.00 in0.0 mm 0.00 in0.0 mm 0.00 in0.0 mm
02:41 AM 49.4°F9.7°C 36.2°F2.3°C 60% 3.4 mph N5.5 kmh N 11.0 mph17.7 kmh 30.31 in1026.4 mb 0.00 in0.0 mm 0.00 in0.0 mm 0.00 in0.0 mm
02:46 AM 49.4°F9.7°C 35.7°F2.1°C 59% 3.6 mph N5.8 kmh N 11.0 mph17.7 kmh 30.31 in1026.4 mb 0.00 in0.0 mm 0.00 in0.0 mm 0.00 in0.0 mm
02:51 AM 49.3°F9.6°C 35.7°F2.1°C 59% 4.1 mph NNE6.6 kmh NNE 10.0 mph16.1 kmh 30.31 in1026.4 mb 0.00 in0.0 mm 0.00 in0.0 mm 0.00 in0.0 mm
02:56 AM 49.3°F9.6°C 35.7°F2.1°C 59% 3.3 mph N5.3 kmh N 10.0 mph16.1 kmh 30.31 in1026.4 mb 0.00 in0.0 mm 0.00 in0.0 mm 0.00 in0.0 mm
03:01 AM 49.3°F9.6°C 35.7°F2.1°C 59% 3.5 mph N5.6 kmh N 10.0 mph16.1 kmh 30.31 in1026.4 mb 0.00 in0.0 mm 0.00 in0.0 mm 0.00 in0.0 mm
03:07 AM 49.3°F9.6°C 35.7°F2.1°C 59% 5.3 mph NE8.5 kmh NE 10.0 mph16.1 kmh 30.31 in1026.4 mb 0.00 in0.0 mm 0.00 in0.0 mm 0.00 in0.0 mm
03:12 AM 49.2°F9.6°C 35.6°F2.0°C 59% 4.9 mph NE7.9 kmh NE 12.0 mph19.3 kmh 30.30 in1026.1 mb 0.00 in0.0 mm 0.00 in0.0 mm 0.00 in0.0 mm
03:17 AM 49.2°F9.6°C 35.6°F2.0°C 59% 6.2 mph NE10.0 kmh NE 12.0 mph19.3 kmh 30.30 in1026.1 mb 0.00 in0.0 mm 0.00 in0.0 mm 0.00 in0.0 mm
03:22 AM 49.1°F9.5°C 35.5°F1.9°C 59% 4.3 mph N6.9 kmh N 12.0 mph19.3 kmh 30.31 in1026.4 mb 0.00 in0.0 mm 0.00 in0.0 mm 0.00 in0.0 mm
03:27 AM 49.1°F9.5°C 35.5°F1.9°C 59% 5.2 mph NE8.4 kmh NE 12.0 mph19.3 kmh 30.31 in1026.4 mb 0.00 in0.0 mm 0.00 in0.0 mm 0.00 in0.0 mm
03:33 AM 49.1°F9.5°C 35.5°F1.9°C 59% 4.7 mph NE7.6 kmh NE 10.0 mph16.1 kmh 30.31 in1026.4 mb 0.00 in0.0 mm 0.00 in0.0 mm 0.00 in0.0 mm
03:38 AM 49.0°F9.4°C 35.4°F1.9°C 59% 5.2 mph NE8.4 kmh NE 10.0 mph16.1 kmh 30.31 in1026.4 mb 0.00 in0.0 mm 0.00 in0.0 mm 0.00 in0.0 mm
03:43 AM 49.1°F9.5°C 35.5°F1.9°C 59% 3.7 mph N6.0 kmh N 10.0 mph16.1 kmh 30.32 in1026.8 mb 0.00 in0.0 mm 0.00 in0.0 mm 0.00 in0.0 mm
03:48 AM 49.0°F9.4°C 35.4°F1.9°C 59% 2.3 mph N3.7 kmh N 10.0 mph16.1 kmh 30.33 in1027.1 mb 0.00 in0.0 mm 0.00 in0.0 mm 0.00 in0.0 mm
03:53 AM 49.1°F9.5°C 35.5°F1.9°C 59% 2.5 mph N4.0 kmh N 10.0 mph16.1 kmh 30.33 in1027.1 mb 0.00 in0.0 mm 0.00 in0.0 mm 0.00 in0.0 mm
03:59 AM 49.1°F9.5°C 35.4°F1.9°C 59% 2.6 mph N4.2 kmh N 8.0 mph12.9 kmh 30.32 in1026.8 mb 0.00 in0.0 mm 0.00 in0.0 mm 0.00 in0.0 mm
04:04 AM 49.0°F9.4°C 35.4°F1.9°C 59% 2.7 mph NNE4.3 kmh NNE 6.0 mph9.7 kmh 30.33 in1027.1 mb 0.00 in0.0 mm 0.00 in0.0 mm 0.00 in0.0 mm
04:09 AM 49.0°F9.4°C 35.4°F1.9°C 59% 3.2 mph NE5.1 kmh NE 7.0 mph11.3 kmh 30.32 in1026.8 mb 0.00 in0.0 mm 0.00 in0.0 mm 0.00 in0.0 mm
04:14 AM 48.9°F9.4°C 35.3°F1.8°C 59% 3.6 mph NE5.8 kmh NE 8.0 mph12.9 kmh 30.32 in1026.8 mb 0.00 in0.0 mm 0.00 in0.0 mm 0.00 in0.0 mm
04:19 AM 48.9°F9.4°C 35.2°F1.8°C 59% 3.3 mph NE5.3 kmh NE 8.0 mph12.9 kmh 30.33 in1027.1 mb 0.00 in0.0 mm 0.00 in0.0 mm 0.00 in0.0 mm
04:25 AM 48.9°F9.4°C 35.6°F2.0°C 60% 5.3 mph NE8.5 kmh NE 11.0 mph17.7 kmh 30.33 in1027.1 mb 0.00 in0.0 mm 0.00 in0.0 mm 0.00 in0.0 mm
04:30 AM 48.8°F9.3°C 35.5°F1.9°C 60% 4.6 mph NE7.4 kmh NE 11.0 mph17.7 kmh 30.33 in1027.1 mb 0.00 in0.0 mm 0.00 in0.0 mm 0.00 in0.0 mm
04:35 AM 48.8°F9.3°C 35.6°F2.0°C 60% 3.0 mph NNE4.8 kmh NNE 11.0 mph17.7 kmh 30.33 in1027.1 mb 0.00 in0.0 mm 0.00 in0.0 mm 0.00 in0.0 mm
04:40 AM 48.7°F9.3°C 35.8°F2.1°C 61% 3.0 mph NE4.8 kmh NE 11.0 mph17.7 kmh 30.33 in1027.1 mb 0.00 in0.0 mm 0.00 in0.0 mm 0.00 in0.0 mm
04:45 AM 48.7°F9.3°C 35.9°F2.2°C 61% 2.9 mph N4.7 kmh N 9.0 mph14.5 kmh 30.33 in1027.1 mb 0.00 in0.0 mm 0.00 in0.0 mm 0.00 in0.0 mm
04:51 AM 48.7°F9.3°C 35.9°F2.2°C 61% 4.6 mph NE7.4 kmh NE 9.0 mph14.5 kmh 30.33 in1027.1 mb 0.00 in0.0 mm 0.00 in0.0 mm 0.00 in0.0 mm
04:56 AM 48.7°F9.3°C 35.8°F2.1°C 61% 3.8 mph NNE6.1 kmh NNE 9.0 mph14.5 kmh 30.33 in1027.1 mb 0.00 in0.0 mm 0.00 in0.0 mm 0.00 in0.0 mm
05:01 AM 48.7°F9.3°C 35.9°F2.2°C 61% 3.8 mph NE6.1 kmh NE 9.0 mph14.5 kmh 30.32 in1026.8 mb 0.00 in0.0 mm 0.00 in0.0 mm 0.00 in0.0 mm
05:06 AM 48.6°F9.2°C 35.7°F2.1°C 61% 4.7 mph NNE7.6 kmh NNE 10.0 mph16.1 kmh 30.32 in1026.8 mb 0.00 in0.0 mm 0.00 in0.0 mm 0.00 in0.0 mm
05:11 AM 48.6°F9.2°C 35.7°F2.1°C 61% 4.4 mph NE7.1 kmh NE 10.0 mph16.1 kmh 30.32 in1026.8 mb 0.00 in0.0 mm 0.00 in0.0 mm 0.00 in0.0 mm
05:17 AM 48.5°F9.2°C 35.7°F2.1°C 61% 4.8 mph NE7.7 kmh NE 14.0 mph22.5 kmh 30.32 in1026.8 mb 0.00 in0.0 mm 0.00 in0.0 mm 0.00 in0.0 mm
05:22 AM 48.5°F9.2°C 35.7°F2.1°C 61% 6.8 mph NE10.9 kmh NE 14.0 mph22.5 kmh 30.32 in1026.8 mb 0.00 in0.0 mm 0.00 in0.0 mm 0.00 in0.0 mm
05:27 AM 48.6°F9.2°C 35.4°F1.9°C 60% 7.5 mph NE12.1 kmh NE 14.0 mph22.5 kmh 30.33 in1027.1 mb 0.00 in0.0 mm 0.00 in0.0 mm 0.00 in0.0 mm
05:32 AM 48.6°F9.2°C 35.7°F2.1°C 61% 4.5 mph NE7.2 kmh NE 14.0 mph22.5 kmh 30.33 in1027.1 mb 0.00 in0.0 mm 0.00 in0.0 mm 0.00 in0.0 mm
05:37 AM 48.6°F9.2°C 35.7°F2.1°C 61% 3.4 mph NE5.5 kmh NE 12.0 mph19.3 kmh 30.34 in1027.4 mb 0.00 in0.0 mm 0.00 in0.0 mm 0.00 in0.0 mm
05:43 AM 48.6°F9.2°C 35.8°F2.1°C 61% 4.0 mph NE6.4 kmh NE 11.0 mph17.7 kmh 30.34 in1027.4 mb 0.00 in0.0 mm 0.00 in0.0 mm 0.00 in0.0 mm
05:48 AM 48.6°F9.2°C 35.7°F2.1°C 61% 3.4 mph NE5.5 kmh NE 9.0 mph14.5 kmh 30.35 in1027.8 mb 0.00 in0.0 mm 0.00 in0.0 mm 0.00 in0.0 mm
05:53 AM 48.6°F9.2°C 35.8°F2.1°C 61% 2.2 mph NE3.5 kmh NE 9.0 mph14.5 kmh 30.36 in1028.1 mb 0.00 in0.0 mm 0.00 in0.0 mm 0.00 in0.0 mm
05:58 AM 48.6°F9.2°C 36.3°F2.4°C 62% 3.9 mph NE6.3 kmh NE 8.0 mph12.9 kmh 30.36 in1028.1 mb 0.00 in0.0 mm 0.00 in0.0 mm 0.00 in0.0 mm
06:03 AM 48.7°F9.3°C 35.8°F2.1°C 61% 2.0 mph NNE3.2 kmh NNE 8.0 mph12.9 kmh 30.36 in1028.1 mb 0.00 in0.0 mm 0.00 in0.0 mm 0.00 in0.0 mm
06:09 AM 48.7°F9.3°C 36.4°F2.4°C 62% 2.0 mph NE3.2 kmh NE 8.0 mph12.9 kmh 30.37 in1028.4 mb 0.00 in0.0 mm 0.00 in0.0 mm 0.00 in0.0 mm
06:14 AM 48.7°F9.3°C 36.4°F2.4°C 62% 1.7 mph NE2.7 kmh NE 8.0 mph12.9 kmh 30.37 in1028.4 mb 0.00 in0.0 mm 0.00 in0.0 mm 0.00 in0.0 mm
06:19 AM 48.7°F9.3°C 35.9°F2.2°C 61% 2.4 mph NNE3.9 kmh NNE 5.0 mph8.0 kmh 30.37 in1028.4 mb 0.00 in0.0 mm 0.00 in0.0 mm 0.00 in0.0 mm
06:24 AM 48.6°F9.2°C 36.3°F2.4°C 62% 2.1 mph NNE3.4 kmh NNE 6.0 mph9.7 kmh 30.37 in1028.4 mb 0.00 in0.0 mm 0.00 in0.0 mm 0.00 in0.0 mm
06:29 AM 48.6°F9.2°C 35.7°F2.1°C 61% 2.7 mph N4.3 kmh N 6.0 mph9.7 kmh 30.37 in1028.4 mb 0.00 in0.0 mm 0.00 in0.0 mm 0.00 in0.0 mm
06:35 AM 48.6°F9.2°C 35.7°F2.1°C 61% 2.8 mph N4.5 kmh N 6.0 mph9.7 kmh 30.38 in1028.8 mb 0.00 in0.0 mm 0.00 in0.0 mm 0.00 in0.0 mm
06:40 AM 48.6°F9.2°C 35.7°F2.1°C 61% 3.2 mph N5.1 kmh N 8.0 mph12.9 kmh 30.38 in1028.8 mb 0.00 in0.0 mm 0.00 in0.0 mm 0.00 in0.0 mm
06:45 AM 48.6°F9.2°C 35.7°F2.1°C 61% 4.1 mph NNE6.6 kmh NNE 9.0 mph14.5 kmh 30.38 in1028.8 mb 0.00 in0.0 mm 0.00 in0.0 mm 0.00 in0.0 mm
06:50 AM 48.6°F9.2°C 35.8°F2.1°C 61% 3.7 mph N6.0 kmh N 9.0 mph14.5 kmh 30.38 in1028.8 mb 0.00 in0.0 mm 0.00 in0.0 mm 0.00 in0.0 mm
06:55 AM 48.6°F9.2°C 35.7°F2.1°C 61% 4.9 mph NE7.9 kmh NE 9.0 mph14.5 kmh 30.37 in1028.4 mb 0.00 in0.0 mm 0.00 in0.0 mm 0.00 in0.0 mm
07:01 AM 48.6°F9.2°C 35.7°F2.1°C 61% 3.5 mph NNE5.6 kmh NNE 9.0 mph14.5 kmh 30.38 in1028.8 mb 0.00 in0.0 mm 0.00 in0.0 mm 0.00 in0.0 mm
07:06 AM 48.6°F9.2°C 35.7°F2.1°C 61% 5.5 mph NE8.9 kmh NE 8.0 mph12.9 kmh 30.40 in1029.5 mb 0.00 in0.0 mm 0.00 in0.0 mm 0.00 in0.0 mm
07:11 AM 48.6°F9.2°C 35.8°F2.1°C 61% 1.7 mph NE2.7 kmh NE 8.0 mph12.9 kmh 30.40 in1029.5 mb 0.00 in0.0 mm 0.00 in0.0 mm 0.00 in0.0 mm
07:16 AM 48.7°F9.3°C 35.8°F2.1°C 61% 3.3 mph NE5.3 kmh NE 8.0 mph12.9 kmh 30.40 in1029.5 mb 0.00 in0.0 mm 0.00 in0.0 mm 0.00 in0.0 mm
07:22 AM 48.7°F9.3°C 35.8°F2.1°C 61% 3.5 mph NE5.6 kmh NE 8.0 mph12.9 kmh 30.40 in1029.5 mb 0.00 in0.0 mm 0.00 in0.0 mm 0.00 in0.0 mm
07:27 AM 48.7°F9.3°C 35.9°F2.2°C 61% 3.2 mph NNE5.1 kmh NNE 8.0 mph12.9 kmh 30.41 in1029.8 mb 0.00 in0.0 mm 0.00 in0.0 mm 0.00 in0.0 mm
07:32 AM 48.7°F9.3°C 35.9°F2.2°C 61% 2.5 mph NNE4.0 kmh NNE 8.0 mph12.9 kmh 30.40 in1029.5 mb 0.00 in0.0 mm 0.00 in0.0 mm 0.00 in0.0 mm
07:37 AM 48.7°F9.3°C 36.4°F2.4°C 62% 4.9 mph NE7.9 kmh NE 8.0 mph12.9 kmh 30.40 in1029.5 mb 0.00 in0.0 mm 0.00 in0.0 mm 0.00 in0.0 mm
07:42 AM 48.7°F9.3°C 36.3°F2.4°C 62% 3.6 mph NE5.8 kmh NE 8.0 mph12.9 kmh 30.41 in1029.8 mb 0.00 in0.0 mm 0.00 in0.0 mm 0.00 in0.0 mm
07:48 AM 48.7°F9.3°C 36.4°F2.4°C 62% 2.2 mph NNE3.5 kmh NNE 8.0 mph12.9 kmh 30.41 in1029.8 mb 0.00 in0.0 mm 0.00 in0.0 mm 0.00 in0.0 mm
07:53 AM 48.6°F9.2°C 36.7°F2.6°C 63% 4.3 mph N6.9 kmh N 8.0 mph12.9 kmh 30.42 in1030.1 mb 0.00 in0.0 mm 0.00 in0.0 mm 0.00 in0.0 mm
07:58 AM 48.6°F9.2°C 37.1°F2.8°C 64% 6.3 mph NE10.1 kmh NE 8.0 mph12.9 kmh 30.41 in1029.8 mb 0.00 in0.0 mm 0.00 in0.0 mm 0.00 in0.0 mm
08:03 AM 48.1°F8.9°C 37.8°F3.2°C 67% 3.4 mph NNE5.5 kmh NNE 8.0 mph12.9 kmh 30.42 in1030.1 mb 0.00 in0.0 mm 0.00 in0.0 mm 0.00 in0.0 mm
08:08 AM 47.5°F8.6°C 38.6°F3.7°C 71% 4.3 mph NE6.9 kmh NE 9.0 mph14.5 kmh 30.42 in1030.1 mb 0.01 in0.3 mm 0.12 in3.0 mm 0.01 in0.3 mm
08:14 AM 46.9°F8.3°C 39.5°F4.2°C 75% 1.8 mph NE2.9 kmh NE 9.0 mph14.5 kmh 30.43 in1030.5 mb 0.01 in0.3 mm 0.00 in0.0 mm 0.01 in0.3 mm
08:19 AM 46.6°F8.1°C 39.2°F4.0°C 75% 6.9 mph NE11.1 kmh NE 10.0 mph16.1 kmh 30.42 in1030.1 mb 0.01 in0.3 mm 0.00 in0.0 mm 0.01 in0.3 mm
08:24 AM 46.5°F8.1°C 39.7°F4.3°C 77% 4.7 mph N7.6 kmh N 10.0 mph16.1 kmh 30.42 in1030.1 mb 0.01 in0.3 mm 0.00 in0.0 mm 0.01 in0.3 mm
08:29 AM 46.2°F7.9°C 40.1°F4.5°C 79% 9.5 mph NE15.3 kmh NE 14.0 mph22.5 kmh 30.40 in1029.5 mb 0.01 in0.3 mm 0.00 in0.0 mm 0.01 in0.3 mm
08:34 AM 46.2°F7.9°C 40.1°F4.5°C 79% 7.4 mph NE11.9 kmh NE 14.0 mph22.5 kmh 30.41 in1029.8 mb 0.01 in0.3 mm 0.00 in0.0 mm 0.01 in0.3 mm
08:40 AM 46.4°F8.0°C 40.3°F4.6°C 79% 5.0 mph NE8.0 kmh NE 14.0 mph22.5 kmh 30.43 in1030.5 mb 0.02 in0.5 mm 0.10 in2.5 mm 0.02 in0.5 mm
08:45 AM 46.4°F8.0°C 40.6°F4.8°C 80% 4.5 mph NE7.2 kmh NE 14.0 mph22.5 kmh 30.44 in1030.8 mb 0.02 in0.5 mm 0.00 in0.0 mm 0.02 in0.5 mm
08:50 AM 46.3°F7.9°C 40.5°F4.7°C 80% 3.7 mph NE6.0 kmh NE 11.0 mph17.7 kmh 30.44 in1030.8 mb 0.02 in0.5 mm 0.00 in0.0 mm 0.02 in0.5 mm
08:55 AM 46.3°F7.9°C 40.8°F4.9°C 81% 3.8 mph ENE6.1 kmh ENE 10.0 mph16.1 kmh 30.44 in1030.8 mb 0.02 in0.5 mm 0.00 in0.0 mm 0.02 in0.5 mm
09:00 AM 46.4°F8.0°C 40.6°F4.8°C 80% 5.6 mph NE9.0 kmh NE 8.0 mph12.9 kmh 30.44 in1030.8 mb 0.02 in0.5 mm 0.00 in0.0 mm 0.02 in0.5 mm
09:06 AM 46.4°F8.0°C 41.2°F5.1°C 82% 3.7 mph NE6.0 kmh NE 8.0 mph12.9 kmh 30.45 in1031.2 mb 0.03 in0.8 mm 0.10 in2.5 mm 0.03 in0.8 mm
09:11 AM 46.0°F7.8°C 41.4°F5.2°C 84% 4.1 mph NE6.6 kmh NE 8.0 mph12.9 kmh 30.45 in1031.2 mb 0.03 in0.8 mm 0.00 in0.0 mm 0.04 in1.0 mm
09:16 AM 45.8°F7.7°C 41.5°F5.3°C 85% 5.1 mph NE8.2 kmh NE 8.0 mph12.9 kmh 30.45 in1031.2 mb 0.03 in0.8 mm 0.00 in0.0 mm 0.04 in1.0 mm
09:24 AM 45.8°F7.7°C 41.8°F5.4°C 86% 5.0 mph NE8.0 kmh NE 8.0 mph12.9 kmh 30.46 in1031.5 mb 0.03 in0.8 mm 0.00 in0.0 mm 0.04 in1.0 mm
09:29 AM 45.9°F7.7°C 41.9°F5.5°C 86% 2.7 mph ENE4.3 kmh ENE 8.0 mph12.9 kmh 30.46 in1031.5 mb 0.03 in0.8 mm 0.00 in0.0 mm 0.04 in1.0 mm
09:34 AM 45.9°F7.7°C 41.9°F5.5°C 86% 5.0 mph NE8.0 kmh NE 8.0 mph12.9 kmh 30.46 in1031.5 mb 0.03 in0.8 mm 0.00 in0.0 mm 0.04 in1.0 mm
09:39 AM 46.0°F7.8°C 42.0°F5.6°C 86% 6.4 mph NE10.3 kmh NE 10.0 mph16.1 kmh 30.46 in1031.5 mb 0.02 in0.5 mm 0.00 in0.0 mm 0.04 in1.0 mm
09:44 AM 46.1°F7.8°C 42.1°F5.6°C 86% 5.6 mph NE9.0 kmh NE 11.0 mph17.7 kmh 30.45 in1031.2 mb 0.02 in0.5 mm 0.00 in0.0 mm 0.04 in1.0 mm
09:49 AM 46.1°F7.8°C 42.1°F5.6°C 86% 6.7 mph NE10.8 kmh NE 11.0 mph17.7 kmh 30.46 in1031.5 mb 0.02 in0.5 mm 0.00 in0.0 mm 0.04 in1.0 mm
09:54 AM 46.3°F7.9°C 42.3°F5.7°C 86% 7.3 mph NE11.7 kmh NE 15.0 mph24.1 kmh 30.46 in1031.5 mb 0.02 in0.5 mm 0.00 in0.0 mm 0.04 in1.0 mm
09:59 AM 46.3°F7.9°C 42.0°F5.6°C 85% 4.7 mph NE7.6 kmh NE 15.0 mph24.1 kmh 30.46 in1031.5 mb 0.02 in0.5 mm 0.00 in0.0 mm 0.04 in1.0 mm
10:04 AM 46.4°F8.0°C 42.1°F5.6°C 85% 5.7 mph NE9.2 kmh NE 15.0 mph24.1 kmh 30.46 in1031.5 mb 0.02 in0.5 mm 0.00 in0.0 mm 0.04 in1.0 mm
10:09 AM 46.4°F8.0°C 42.1°F5.6°C 85% 5.5 mph NE8.9 kmh NE 15.0 mph24.1 kmh 30.46 in1031.5 mb 0.00 in0.0 mm 0.00 in0.0 mm 0.04 in1.0 mm
10:14 AM 46.4°F8.0°C 42.4°F5.8°C 86% 5.7 mph NE9.2 kmh NE 12.0 mph19.3 kmh 30.47 in1031.8 mb 0.00 in0.0 mm 0.00 in0.0 mm 0.04 in1.0 mm
10:19 AM 46.3°F7.9°C 42.3°F5.7°C 86% 8.5 mph NE13.7 kmh NE 14.0 mph22.5 kmh 30.46 in1031.5 mb 0.00 in0.0 mm 0.00 in0.0 mm 0.04 in1.0 mm
10:24 AM 46.1°F7.8°C 42.4°F5.8°C 87% 8.9 mph NE14.3 kmh NE 14.0 mph22.5 kmh 30.46 in1031.5 mb 0.00 in0.0 mm 0.00 in0.0 mm 0.04 in1.0 mm
10:29 AM 46.1°F7.8°C 42.4°F5.8°C 87% 6.6 mph NE10.6 kmh NE 14.0 mph22.5 kmh 30.45 in1031.2 mb 0.00 in0.0 mm 0.00 in0.0 mm 0.04 in1.0 mm
10:34 AM 46.1°F7.8°C 42.4°F5.8°C 87% 6.5 mph NE10.5 kmh NE 14.0 mph22.5 kmh 30.45 in1031.2 mb 0.00 in0.0 mm 0.00 in0.0 mm 0.04 in1.0 mm
10:39 AM 46.0°F7.8°C 42.0°F5.6°C 86% 8.7 mph NE14.0 kmh NE 13.0 mph20.9 kmh 30.45 in1031.2 mb 0.00 in0.0 mm 0.00 in0.0 mm 0.04 in1.0 mm
10:44 AM 46.1°F7.8°C 42.1°F5.6°C 86% 8.1 mph NE13.0 kmh NE 15.0 mph24.1 kmh 30.45 in1031.2 mb 0.00 in0.0 mm 0.00 in0.0 mm 0.04 in1.0 mm
10:49 AM 46.1°F7.8°C 42.1°F5.6°C 86% 10.4 mph NE16.7 kmh NE 16.0 mph25.7 kmh 30.45 in1031.2 mb 0.00 in0.0 mm 0.00 in0.0 mm 0.04 in1.0 mm
10:54 AM 46.0°F7.8°C 41.7°F5.4°C 85% 9.4 mph NE15.1 kmh NE 19.0 mph30.6 kmh 30.45 in1031.2 mb 0.00 in0.0 mm 0.00 in0.0 mm 0.04 in1.0 mm
10:59 AM 46.1°F7.8°C 41.8°F5.4°C 85% 5.6 mph NE9.0 kmh NE 19.0 mph30.6 kmh 30.45 in1031.2 mb 0.00 in0.0 mm 0.00 in0.0 mm 0.04 in1.0 mm
11:04 AM 46.2°F7.9°C 41.9°F5.5°C 85% 9.4 mph NE15.1 kmh NE 19.0 mph30.6 kmh 30.44 in1030.8 mb 0.00 in0.0 mm 0.00 in0.0 mm 0.04 in1.0 mm
11:09 AM 46.3°F7.9°C 41.7°F5.4°C 84% 7.2 mph NE11.6 kmh NE 21.0 mph33.8 kmh 30.43 in1030.5 mb 0.00 in0.0 mm 0.00 in0.0 mm 0.04 in1.0 mm
11:14 AM 46.3°F7.9°C 41.4°F5.2°C 83% 12.4 mph ENE20.0 kmh ENE 21.0 mph33.8 kmh 30.41 in1029.8 mb 0.00 in0.0 mm 0.00 in0.0 mm 0.04 in1.0 mm
11:19 AM 46.4°F8.0°C 41.5°F5.3°C 83% 11.3 mph ENE18.2 kmh ENE 22.0 mph35.4 kmh 30.41 in1029.8 mb 0.00 in0.0 mm 0.00 in0.0 mm 0.04 in1.0 mm
11:24 AM 46.3°F7.9°C 41.4°F5.2°C 83% 11.9 mph ENE19.2 kmh ENE 24.0 mph38.6 kmh 30.41 in1029.8 mb 0.00 in0.0 mm 0.00 in0.0 mm 0.04 in1.0 mm
11:29 AM 46.4°F8.0°C 41.5°F5.3°C 83% 11.5 mph ENE18.5 kmh ENE 24.0 mph38.6 kmh 30.42 in1030.1 mb 0.00 in0.0 mm 0.00 in0.0 mm 0.04 in1.0 mm
11:34 AM 46.5°F8.1°C 41.9°F5.5°C 84% 7.2 mph ENE11.6 kmh ENE 24.0 mph38.6 kmh 30.42 in1030.1 mb 0.00 in0.0 mm 0.00 in0.0 mm 0.04 in1.0 mm
11:39 AM 46.6°F8.1°C 42.0°F5.6°C 84% 9.3 mph ENE15.0 kmh ENE 24.0 mph38.6 kmh 30.42 in1030.1 mb 0.00 in0.0 mm 0.00 in0.0 mm 0.04 in1.0 mm
11:44 AM 46.7°F8.2°C 42.1°F5.6°C 84% 10.2 mph ENE16.4 kmh ENE 18.0 mph29.0 kmh 30.42 in1030.1 mb 0.00 in0.0 mm 0.00 in0.0 mm 0.04 in1.0 mm
11:49 AM 46.9°F8.3°C 42.3°F5.7°C 84% 6.5 mph ENE10.5 kmh ENE 18.0 mph29.0 kmh 30.42 in1030.1 mb 0.00 in0.0 mm 0.00 in0.0 mm 0.04 in1.0 mm
11:54 AM 46.9°F8.3°C 42.0°F5.6°C 83% 8.7 mph ENE14.0 kmh ENE 19.0 mph30.6 kmh 30.41 in1029.8 mb 0.00 in0.0 mm 0.00 in0.0 mm 0.04 in1.0 mm
11:59 AM 46.9°F8.3°C 41.7°F5.4°C 82% 14.5 mph NE23.3 kmh NE 21.0 mph33.8 kmh 30.40 in1029.5 mb 0.00 in0.0 mm 0.00 in0.0 mm 0.04 in1.0 mm
12:04 PM 46.9°F8.3°C 42.0°F5.6°C 83% 10.2 mph ENE16.4 kmh ENE 21.0 mph33.8 kmh 30.40 in1029.5 mb 0.00 in0.0 mm 0.00 in0.0 mm 0.04 in1.0 mm
12:09 PM 46.8°F8.2°C 41.6°F5.3°C 82% 12.9 mph ENE20.8 kmh ENE 21.0 mph33.8 kmh 30.39 in1029.1 mb 0.00 in0.0 mm 0.00 in0.0 mm 0.04 in1.0 mm
12:14 PM 46.8°F8.2°C 41.6°F5.3°C 82% 8.3 mph ENE13.4 kmh ENE 21.0 mph33.8 kmh 30.39 in1029.1 mb 0.00 in0.0 mm 0.00 in0.0 mm 0.04 in1.0 mm
12:19 PM 46.9°F8.3°C 41.7°F5.4°C 82% 10.3 mph ENE16.6 kmh ENE 21.0 mph33.8 kmh 30.38 in1028.8 mb 0.00 in0.0 mm 0.00 in0.0 mm 0.04 in1.0 mm
12:24 PM 46.6°F8.1°C 41.4°F5.2°C 82% 15.5 mph NE24.9 kmh NE 24.0 mph38.6 kmh 30.38 in1028.8 mb 0.00 in0.0 mm 0.00 in0.0 mm 0.04 in1.0 mm
12:29 PM 46.6°F8.1°C 41.7°F5.4°C 83% 10.5 mph NE16.9 kmh NE 24.0 mph38.6 kmh 30.38 in1028.8 mb 0.00 in0.0 mm 0.00 in0.0 mm 0.04 in1.0 mm
12:34 PM 46.7°F8.2°C 41.8°F5.4°C 83% 12.7 mph NE20.4 kmh NE 24.0 mph38.6 kmh 30.36 in1028.1 mb 0.00 in0.0 mm 0.00 in0.0 mm 0.04 in1.0 mm
12:39 PM 46.8°F8.2°C 41.6°F5.3°C 82% 13.4 mph NE21.6 kmh NE 24.0 mph38.6 kmh 30.36 in1028.1 mb 0.00 in0.0 mm 0.00 in0.0 mm 0.04 in1.0 mm
12:44 PM 47.1°F8.4°C 41.6°F5.3°C 81% 13.1 mph NE21.1 kmh NE 20.0 mph32.2 kmh 30.36 in1028.1 mb 0.00 in0.0 mm 0.00 in0.0 mm 0.04 in1.0 mm
12:49 PM 47.1°F8.4°C 41.6°F5.3°C 81% 10.7 mph ENE17.2 kmh ENE 20.0 mph32.2 kmh 30.36 in1028.1 mb 0.00 in0.0 mm 0.00 in0.0 mm 0.04 in1.0 mm
12:54 PM 47.1°F8.4°C 41.6°F5.3°C 81% 9.0 mph ENE14.5 kmh ENE 20.0 mph32.2 kmh 30.37 in1028.4 mb 0.00 in0.0 mm 0.00 in0.0 mm 0.04 in1.0 mm
12:59 PM 46.8°F8.2°C 41.3°F5.2°C 81% 11.5 mph ENE18.5 kmh ENE 23.0 mph37.0 kmh 30.36 in1028.1 mb 0.00 in0.0 mm 0.00 in0.0 mm 0.04 in1.0 mm
01:04 PM 46.7°F8.2°C 41.2°F5.1°C 81% 11.5 mph NE18.5 kmh NE 23.0 mph37.0 kmh 30.35 in1027.8 mb 0.00 in0.0 mm 0.00 in0.0 mm 0.04 in1.0 mm
01:09 PM 46.8°F8.2°C 41.3°F5.2°C 81% 11.5 mph ENE18.5 kmh ENE 23.0 mph37.0 kmh 30.35 in1027.8 mb 0.00 in0.0 mm 0.00 in0.0 mm 0.04 in1.0 mm
01:14 PM 46.8°F8.2°C 41.3°F5.2°C 81% 9.2 mph ENE14.8 kmh ENE 20.0 mph32.2 kmh 30.35 in1027.8 mb 0.00 in0.0 mm 0.00 in0.0 mm 0.04 in1.0 mm
01:19 PM 46.6°F8.1°C 40.8°F4.9°C 80% 11.9 mph NE19.2 kmh NE 20.0 mph32.2 kmh 30.35 in1027.8 mb 0.00 in0.0 mm 0.00 in0.0 mm 0.04 in1.0 mm
01:24 PM 46.3°F7.9°C 40.8°F4.9°C 81% 9.9 mph ENE15.9 kmh ENE 20.0 mph32.2 kmh 30.35 in1027.8 mb 0.00 in0.0 mm 0.00 in0.0 mm 0.04 in1.0 mm
01:29 PM 46.0°F7.8°C 40.5°F4.7°C 81% 14.2 mph ENE22.9 kmh ENE 20.0 mph32.2 kmh 30.34 in1027.4 mb 0.00 in0.0 mm 0.00 in0.0 mm 0.04 in1.0 mm
01:34 PM 45.9°F7.7°C 40.7°F4.8°C 82% 6.4 mph ENE10.3 kmh ENE 20.0 mph32.2 kmh 30.35 in1027.8 mb 0.00 in0.0 mm 0.00 in0.0 mm 0.04 in1.0 mm
01:39 PM 45.8°F7.7°C 40.6°F4.8°C 82% 10.2 mph NE16.4 kmh NE 20.0 mph32.2 kmh 30.34 in1027.4 mb 0.00 in0.0 mm 0.00 in0.0 mm 0.04 in1.0 mm
01:44 PM 45.7°F7.6°C 40.5°F4.7°C 82% 11.3 mph ENE18.2 kmh ENE 20.0 mph32.2 kmh 30.33 in1027.1 mb 0.00 in0.0 mm 0.00 in0.0 mm 0.04 in1.0 mm
01:49 PM 45.7°F7.6°C 40.5°F4.7°C 82% 8.4 mph ENE13.5 kmh ENE 20.0 mph32.2 kmh 30.33 in1027.1 mb 0.00 in0.0 mm 0.00 in0.0 mm 0.04 in1.0 mm
01:54 PM 45.8°F7.7°C 40.6°F4.8°C 82% 6.5 mph ENE10.5 kmh ENE 20.0 mph32.2 kmh 30.34 in1027.4 mb 0.00 in0.0 mm 0.00 in0.0 mm 0.04 in1.0 mm
01:59 PM 45.8°F7.7°C 40.9°F4.9°C 83% 4.9 mph ENE7.9 kmh ENE 20.0 mph32.2 kmh 30.34 in1027.4 mb 0.00 in0.0 mm 0.00 in0.0 mm 0.04 in1.0 mm
02:04 PM 45.6°F7.6°C 40.4°F4.7°C 82% 9.5 mph NE15.3 kmh NE 19.0 mph30.6 kmh 30.35 in1027.8 mb 0.00 in0.0 mm 0.00 in0.0 mm 0.04 in1.0 mm
02:09 PM 45.6°F7.6°C 40.4°F4.7°C 82% 6.7 mph NE10.8 kmh NE 16.0 mph25.7 kmh 30.36 in1028.1 mb 0.00 in0.0 mm 0.00 in0.0 mm 0.04 in1.0 mm
02:14 PM 45.4°F7.4°C 40.2°F4.6°C 82% 10.3 mph NE16.6 kmh NE 20.0 mph32.2 kmh 30.37 in1028.4 mb 0.00 in0.0 mm 0.00 in0.0 mm 0.04 in1.0 mm
02:19 PM 45.3°F7.4°C 40.4°F4.7°C 83% 10.5 mph NE16.9 kmh NE 20.0 mph32.2 kmh 30.36 in1028.1 mb 0.00 in0.0 mm 0.00 in0.0 mm 0.04 in1.0 mm
02:23 PM 44.9°F7.2°C 40.4°F4.7°C 84% 9.7 mph NE15.6 kmh NE 20.0 mph32.2 kmh 30.35 in1027.8 mb 0.00 in0.0 mm 0.00 in0.0 mm 0.04 in1.0 mm
02:28 PM 44.5°F6.9°C 40.6°F4.8°C 86% 5.7 mph ENE9.2 kmh ENE 20.0 mph32.2 kmh 30.35 in1027.8 mb 0.01 in0.3 mm 0.12 in3.0 mm 0.05 in1.3 mm
02:33 PM 44.1°F6.7°C 40.8°F4.9°C 88% 7.2 mph NE11.6 kmh NE 17.0 mph27.4 kmh 30.36 in1028.1 mb 0.01 in0.3 mm 0.00 in0.0 mm 0.05 in1.3 mm
02:38 PM 43.8°F6.6°C 40.7°F4.8°C 89% 5.4 mph NE8.7 kmh NE 17.0 mph27.4 kmh 30.36 in1028.1 mb 0.02 in0.5 mm 0.12 in3.0 mm 0.06 in1.5 mm
02:43 PM 43.6°F6.4°C 40.8°F4.9°C 90% 5.6 mph NE9.0 kmh NE 17.0 mph27.4 kmh 30.36 in1028.1 mb 0.02 in0.5 mm 0.00 in0.0 mm 0.06 in1.5 mm
02:48 PM 43.5°F6.4°C 41.0°F5.0°C 91% 7.0 mph NE11.3 kmh NE 14.0 mph22.5 kmh 30.36 in1028.1 mb 0.02 in0.5 mm 0.00 in0.0 mm 0.06 in1.5 mm
02:53 PM 43.4°F6.3°C 40.9°F4.9°C 91% 4.2 mph NE6.8 kmh NE 14.0 mph22.5 kmh 30.36 in1028.1 mb 0.02 in0.5 mm 0.00 in0.0 mm 0.06 in1.5 mm
02:58 PM 43.3°F6.3°C 41.1°F5.1°C 92% 5.0 mph NE8.0 kmh NE 13.0 mph20.9 kmh 30.36 in1028.1 mb 0.02 in0.5 mm 0.00 in0.0 mm 0.06 in1.5 mm
03:03 PM 43.3°F6.3°C 41.4°F5.2°C 93% 6.4 mph NE10.3 kmh NE 13.0 mph20.9 kmh 30.36 in1028.1 mb 0.03 in0.8 mm 0.01 in0.3 mm 0.07 in1.8 mm
03:08 PM 43.1°F6.2°C 41.2°F5.1°C 93% 8.1 mph NE13.0 kmh NE 12.0 mph19.3 kmh 30.36 in1028.1 mb 0.04 in1.0 mm 0.12 in3.0 mm 0.08 in2.0 mm
03:13 PM 43.0°F6.1°C 41.1°F5.1°C 93% 5.5 mph NE8.9 kmh NE 12.0 mph19.3 kmh 30.36 in1028.1 mb 0.04 in1.0 mm 0.00 in0.0 mm 0.08 in2.0 mm
03:18 PM 42.8°F6.0°C 41.2°F5.1°C 94% 7.9 mph NE12.7 kmh NE 14.0 mph22.5 kmh 30.36 in1028.1 mb 0.05 in1.3 mm 0.12 in3.0 mm 0.09 in2.3 mm
03:23 PM 42.4°F5.8°C 40.8°F4.9°C 94% 10.5 mph NE16.9 kmh NE 18.0 mph29.0 kmh 30.36 in1028.1 mb 0.06 in1.5 mm 0.12 in3.0 mm 0.10 in2.5 mm
03:28 PM 42.1°F5.6°C 40.5°F4.7°C 94% 10.8 mph NE17.4 kmh NE 19.0 mph30.6 kmh 30.35 in1027.8 mb 0.06 in1.5 mm 0.00 in0.0 mm 0.11 in2.8 mm
03:33 PM 42.0°F5.6°C 40.4°F4.7°C 94% 8.2 mph NE13.2 kmh NE 19.0 mph30.6 kmh 30.35 in1027.8 mb 0.07 in1.8 mm 0.12 in3.0 mm 0.12 in3.0 mm
03:38 PM 41.9°F5.5°C 40.3°F4.6°C 94% 11.8 mph NE19.0 kmh NE 19.0 mph30.6 kmh 30.35 in1027.8 mb 0.06 in1.5 mm 0.00 in0.0 mm 0.12 in3.0 mm
03:43 PM 41.8°F5.4°C 40.2°F4.6°C 94% 6.4 mph NE10.3 kmh NE 19.0 mph30.6 kmh 30.35 in1027.8 mb 0.06 in1.5 mm 0.00 in0.0 mm 0.12 in3.0 mm
03:48 PM 41.8°F5.4°C 40.4°F4.7°C 95% 8.6 mph NE13.8 kmh NE 19.0 mph30.6 kmh 30.35 in1027.8 mb 0.06 in1.5 mm 0.00 in0.0 mm 0.12 in3.0 mm
03:53 PM 41.7°F5.4°C 40.3°F4.6°C 95% 8.9 mph ENE14.3 kmh ENE 19.0 mph30.6 kmh 30.34 in1027.4 mb 0.07 in1.8 mm 0.12 in3.0 mm 0.13 in3.3 mm
03:58 PM 41.7°F5.4°C 40.4°F4.7°C 95% 9.8 mph NE15.8 kmh NE 18.0 mph29.0 kmh 30.34 in1027.4 mb 0.07 in1.8 mm 0.00 in0.0 mm 0.13 in3.3 mm
04:03 PM 41.6°F5.3°C 40.3°F4.6°C 95% 11.0 mph NE17.7 kmh NE 18.0 mph29.0 kmh 30.34 in1027.4 mb 0.06 in1.5 mm 0.00 in0.0 mm 0.13 in3.3 mm
04:09 PM 41.5°F5.3°C 40.1°F4.5°C 95% 10.0 mph ENE16.1 kmh ENE 18.0 mph29.0 kmh 30.34 in1027.4 mb 0.06 in1.5 mm 0.00 in0.0 mm 0.14 in3.6 mm
04:14 PM 41.4°F5.2°C 40.0°F4.4°C 95% 11.6 mph ENE18.7 kmh ENE 18.0 mph29.0 kmh 30.34 in1027.4 mb 0.06 in1.5 mm 0.00 in0.0 mm 0.14 in3.6 mm
04:19 PM 41.3°F5.2°C 40.0°F4.4°C 95% 9.8 mph ENE15.8 kmh ENE 21.0 mph33.8 kmh 30.34 in1027.4 mb 0.05 in1.3 mm 0.00 in0.0 mm 0.14 in3.6 mm
04:23 PM 41.3°F5.2°C 39.9°F4.4°C 95% 6.2 mph ENE10.0 kmh ENE 21.0 mph33.8 kmh 30.34 in1027.4 mb 0.05 in1.3 mm 0.00 in0.0 mm 0.15 in3.8 mm
04:29 PM 41.2°F5.1°C 39.8°F4.3°C 95% 7.9 mph ENE12.7 kmh ENE 21.0 mph33.8 kmh 30.34 in1027.4 mb 0.04 in1.0 mm 0.00 in0.0 mm 0.15 in3.8 mm
04:33 PM 41.1°F5.1°C 39.8°F4.3°C 95% 10.1 mph ENE16.3 kmh ENE 21.0 mph33.8 kmh 30.34 in1027.4 mb 0.03 in0.8 mm 0.00 in0.0 mm 0.15 in3.8 mm
04:38 PM 41.1°F5.1°C 39.7°F4.3°C 95% 8.4 mph NE13.5 kmh NE 19.0 mph30.6 kmh 30.34 in1027.4 mb 0.03 in0.8 mm 0.00 in0.0 mm 0.15 in3.8 mm
04:44 PM 41.0°F5.0°C 39.6°F4.2°C 95% 9.4 mph NE15.1 kmh NE 19.0 mph30.6 kmh 30.34 in1027.4 mb 0.04 in1.0 mm 0.10 in2.5 mm 0.16 in4.1 mm
04:49 PM 41.0°F5.0°C 39.6°F4.2°C 95% 8.5 mph ENE13.7 kmh ENE 19.0 mph30.6 kmh 30.34 in1027.4 mb 0.04 in1.0 mm 0.00 in0.0 mm 0.16 in4.1 mm
04:54 PM 41.0°F5.0°C 39.6°F4.2°C 95% 7.7 mph ENE12.4 kmh ENE 18.0 mph29.0 kmh 30.33 in1027.1 mb 0.03 in0.8 mm 0.00 in0.0 mm 0.16 in4.1 mm
04:59 PM 41.0°F5.0°C 39.7°F4.3°C 95% 8.2 mph ENE13.2 kmh ENE 18.0 mph29.0 kmh 30.34 in1027.4 mb 0.03 in0.8 mm 0.00 in0.0 mm 0.16 in4.1 mm
05:04 PM 40.9°F4.9°C 39.6°F4.2°C 95% 12.4 mph NE20.0 kmh NE 18.0 mph29.0 kmh 30.34 in1027.4 mb 0.04 in1.0 mm 0.01 in0.3 mm 0.17 in4.3 mm
05:09 PM 40.8°F4.9°C 39.4°F4.1°C 95% 7.2 mph NE11.6 kmh NE 18.0 mph29.0 kmh 30.34 in1027.4 mb 0.03 in0.8 mm 0.00 in0.0 mm 0.17 in4.3 mm
05:14 PM 40.6°F4.8°C 39.2°F4.0°C 95% 9.6 mph ENE15.4 kmh ENE 18.0 mph29.0 kmh 30.35 in1027.8 mb 0.04 in1.0 mm 0.12 in3.0 mm 0.18 in4.6 mm
05:19 PM 40.6°F4.8°C 39.2°F4.0°C 95% 8.0 mph ENE12.9 kmh ENE 18.0 mph29.0 kmh 30.34 in1027.4 mb 0.04 in1.0 mm 0.00 in0.0 mm 0.18 in4.6 mm
05:24 PM 40.5°F4.7°C 39.2°F4.0°C 95% 7.2 mph ENE11.6 kmh ENE 17.0 mph27.4 kmh 30.34 in1027.4 mb 0.03 in0.8 mm 0.00 in0.0 mm 0.18 in4.6 mm
05:29 PM 40.5°F4.7°C 39.4°F4.1°C 96% 8.9 mph ENE14.3 kmh ENE 21.0 mph33.8 kmh 30.33 in1027.1 mb 0.03 in0.8 mm 0.00 in0.0 mm 0.18 in4.6 mm
05:34 PM 40.4°F4.7°C 39.3°F4.1°C 96% 11.3 mph ENE18.2 kmh ENE 21.0 mph33.8 kmh 30.34 in1027.4 mb 0.03 in0.8 mm 0.00 in0.0 mm 0.18 in4.6 mm
05:39 PM 40.5°F4.7°C 39.4°F4.1°C 96% 5.9 mph ENE9.5 kmh ENE 21.0 mph33.8 kmh 30.34 in1027.4 mb 0.03 in0.8 mm 0.00 in0.0 mm 0.18 in4.6 mm
05:44 PM 40.4°F4.7°C 39.3°F4.1°C 96% 14.2 mph NE22.9 kmh NE 21.0 mph33.8 kmh 30.35 in1027.8 mb 0.02 in0.5 mm 0.00 in0.0 mm 0.18 in4.6 mm
05:49 PM 40.4°F4.7°C 39.0°F3.9°C 95% 9.2 mph ENE14.8 kmh ENE 19.0 mph30.6 kmh 30.34 in1027.4 mb 0.02 in0.5 mm 0.00 in0.0 mm 0.18 in4.6 mm
05:54 PM 40.4°F4.7°C 39.0°F3.9°C 95% 10.7 mph ENE17.2 kmh ENE 19.0 mph30.6 kmh 30.35 in1027.8 mb 0.02 in0.5 mm 0.00 in0.0 mm 0.18 in4.6 mm
05:59 PM 40.3°F4.6°C 39.0°F3.9°C 95% 9.7 mph ENE15.6 kmh ENE 19.0 mph30.6 kmh 30.35 in1027.8 mb 0.02 in0.5 mm 0.00 in0.0 mm 0.18 in4.6 mm
06:04 PM 40.3°F4.6°C 38.9°F3.8°C 95% 10.4 mph ENE16.7 kmh ENE 19.0 mph30.6 kmh 30.35 in1027.8 mb 0.02 in0.5 mm 0.00 in0.0 mm 0.19 in4.8 mm
06:09 PM 40.2°F4.6°C 38.6°F3.7°C 94% 9.4 mph ENE15.1 kmh ENE 20.0 mph32.2 kmh 30.36 in1028.1 mb 0.02 in0.5 mm 0.00 in0.0 mm 0.19 in4.8 mm
06:14 PM 40.2°F4.6°C 38.9°F3.8°C 95% 7.7 mph NE12.4 kmh NE 20.0 mph32.2 kmh 30.36 in1028.1 mb 0.02 in0.5 mm 0.00 in0.0 mm 0.20 in5.1 mm
06:19 PM 40.1°F4.5°C 38.8°F3.8°C 95% 9.4 mph ENE15.1 kmh ENE 20.0 mph32.2 kmh 30.35 in1027.8 mb 0.03 in0.8 mm 0.12 in3.0 mm 0.21 in5.3 mm
06:24 PM 40.0°F4.4°C 38.6°F3.7°C 95% 11.2 mph ENE18.0 kmh ENE 20.0 mph32.2 kmh 30.35 in1027.8 mb 0.04 in1.0 mm 0.12 in3.0 mm 0.22 in5.6 mm
06:29 PM 39.9°F4.4°C 38.5°F3.6°C 95% 7.4 mph ENE11.9 kmh ENE 19.0 mph30.6 kmh 30.35 in1027.8 mb 0.05 in1.3 mm 0.12 in3.0 mm 0.23 in5.8 mm
06:34 PM 39.9°F4.4°C 38.6°F3.7°C 95% 5.9 mph NE9.5 kmh NE 19.0 mph30.6 kmh 30.36 in1028.1 mb 0.05 in1.3 mm 0.00 in0.0 mm 0.23 in5.8 mm
06:39 PM 39.9°F4.4°C 38.5°F3.6°C 95% 6.8 mph NE10.9 kmh NE 19.0 mph30.6 kmh 30.35 in1027.8 mb 0.06 in1.5 mm 0.12 in3.0 mm 0.24 in6.1 mm
06:44 PM 40.0°F4.4°C 39.0°F3.9°C 96% 11.1 mph NE17.9 kmh NE 21.0 mph33.8 kmh 30.36 in1028.1 mb 0.06 in1.5 mm 0.00 in0.0 mm 0.24 in6.1 mm
06:49 PM 40.0°F4.4°C 38.9°F3.8°C 96% 8.4 mph NE13.5 kmh NE 25.0 mph40.2 kmh 30.36 in1028.1 mb 0.07 in1.8 mm 0.12 in3.0 mm 0.25 in6.4 mm
06:54 PM 40.0°F4.4°C 38.9°F3.8°C 96% 10.9 mph ENE17.5 kmh ENE 25.0 mph40.2 kmh 30.36 in1028.1 mb 0.10 in2.5 mm 0.36 in9.1 mm 0.28 in7.1 mm
06:59 PM 40.0°F4.4°C 39.0°F3.9°C 96% 7.7 mph ENE12.4 kmh ENE 25.0 mph40.2 kmh 30.36 in1028.1 mb 0.12 in3.0 mm 0.24 in6.1 mm 0.30 in7.6 mm
07:04 PM 40.1°F4.5°C 39.0°F3.9°C 96% 10.2 mph ENE16.4 kmh ENE 19.0 mph30.6 kmh 30.36 in1028.1 mb 0.12 in3.0 mm 0.00 in0.0 mm 0.31 in7.9 mm
07:09 PM 40.1°F4.5°C 39.0°F3.9°C 96% 7.4 mph ENE11.9 kmh ENE 19.0 mph30.6 kmh 30.36 in1028.1 mb 0.13 in3.3 mm 0.12 in3.0 mm 0.32 in8.1 mm
07:14 PM 40.1°F4.5°C 39.0°F3.9°C 96% 6.9 mph ENE11.1 kmh ENE 16.0 mph25.7 kmh 30.36 in1028.1 mb 0.12 in3.0 mm 0.00 in0.0 mm 0.32 in8.1 mm
07:19 PM 40.2°F4.6°C 39.1°F3.9°C 96% 8.2 mph ENE13.2 kmh ENE 16.0 mph25.7 kmh 30.36 in1028.1 mb 0.11 in2.8 mm 0.00 in0.0 mm 0.32 in8.1 mm
07:23 PM 40.3°F4.6°C 39.2°F4.0°C 96% 6.8 mph ENE10.9 kmh ENE 15.0 mph24.1 kmh 30.36 in1028.1 mb 0.10 in2.5 mm 0.00 in0.0 mm 0.32 in8.1 mm
07:28 PM 40.2°F4.6°C 39.1°F3.9°C 96% 8.7 mph E14.0 kmh E 17.0 mph27.4 kmh 30.36 in1028.1 mb 0.09 in2.3 mm 0.00 in0.0 mm 0.32 in8.1 mm
07:33 PM 40.2°F4.6°C 39.2°F4.0°C 96% 5.4 mph ENE8.7 kmh ENE 18.0 mph29.0 kmh 30.36 in1028.1 mb 0.09 in2.3 mm 0.00 in0.0 mm 0.32 in8.1 mm
07:38 PM 40.2°F4.6°C 39.2°F4.0°C 96% 10.2 mph ENE16.4 kmh ENE 18.0 mph29.0 kmh 30.36 in1028.1 mb 0.08 in2.0 mm 0.00 in0.0 mm 0.32 in8.1 mm
07:43 PM 40.1°F4.5°C 38.8°F3.8°C 95% 12.1 mph ENE19.5 kmh ENE 18.0 mph29.0 kmh 30.36 in1028.1 mb 0.08 in2.0 mm 0.00 in0.0 mm 0.32 in8.1 mm
07:48 PM 40.1°F4.5°C 38.7°F3.7°C 95% 6.3 mph ENE10.1 kmh ENE 18.0 mph29.0 kmh 30.35 in1027.8 mb 0.07 in1.8 mm 0.00 in0.0 mm 0.32 in8.1 mm
07:53 PM 40.2°F4.6°C 39.2°F4.0°C 96% 6.8 mph ENE10.9 kmh ENE 18.0 mph29.0 kmh 30.35 in1027.8 mb 0.05 in1.3 mm 0.00 in0.0 mm 0.32 in8.1 mm
07:58 PM 40.2°F4.6°C 39.1°F3.9°C 96% 4.4 mph ENE7.1 kmh ENE 18.0 mph29.0 kmh 30.35 in1027.8 mb 0.02 in0.5 mm 0.00 in0.0 mm 0.32 in8.1 mm
08:03 PM 40.1°F4.5°C 39.1°F3.9°C 96% 10.2 mph ENE16.4 kmh ENE 20.0 mph32.2 kmh 30.35 in1027.8 mb 0.02 in0.5 mm 0.00 in0.0 mm 0.33 in8.4 mm
08:08 PM 40.0°F4.4°C 38.9°F3.8°C 96% 10.7 mph ENE17.2 kmh ENE 20.0 mph32.2 kmh 30.35 in1027.8 mb 0.02 in0.5 mm 0.00 in0.0 mm 0.33 in8.4 mm
08:13 PM 40.0°F4.4°C 38.9°F3.8°C 96% 8.8 mph NE14.2 kmh NE 20.0 mph32.2 kmh 30.35 in1027.8 mb 0.01 in0.3 mm 0.00 in0.0 mm 0.33 in8.4 mm
08:18 PM 39.9°F4.4°C 38.6°F3.7°C 95% 13.2 mph ENE21.2 kmh ENE 23.0 mph37.0 kmh 30.34 in1027.4 mb 0.01 in0.3 mm 0.00 in0.0 mm 0.33 in8.4 mm
08:23 PM 39.9°F4.4°C 38.5°F3.6°C 95% 8.7 mph ENE14.0 kmh ENE 23.0 mph37.0 kmh 30.34 in1027.4 mb 0.01 in0.3 mm 0.00 in0.0 mm 0.33 in8.4 mm
08:28 PM 39.9°F4.4°C 38.6°F3.7°C 95% 10.4 mph ENE16.7 kmh ENE 23.0 mph37.0 kmh 30.35 in1027.8 mb 0.01 in0.3 mm 0.00 in0.0 mm 0.33 in8.4 mm
08:33 PM 39.9°F4.4°C 38.5°F3.6°C 95% 8.3 mph ENE13.4 kmh ENE 23.0 mph37.0 kmh 30.35 in1027.8 mb 0.01 in0.3 mm 0.00 in0.0 mm 0.33 in8.4 mm
08:38 PM 39.9°F4.4°C 38.6°F3.7°C 95% 8.0 mph ENE12.9 kmh ENE 18.0 mph29.0 kmh 30.35 in1027.8 mb 0.01 in0.3 mm 0.00 in0.0 mm 0.33 in8.4 mm
08:43 PM 39.9°F4.4°C 38.5°F3.6°C 95% 7.9 mph E12.7 kmh E 18.0 mph29.0 kmh 30.35 in1027.8 mb 0.02 in0.5 mm 0.12 in3.0 mm 0.34 in8.6 mm
08:48 PM 39.9°F4.4°C 38.5°F3.6°C 95% 9.4 mph ENE15.1 kmh ENE 19.0 mph30.6 kmh 30.35 in1027.8 mb 0.03 in0.8 mm 0.12 in3.0 mm 0.35 in8.9 mm
08:53 PM 39.9°F4.4°C 38.8°F3.8°C 96% 7.0 mph E11.3 kmh E 19.0 mph30.6 kmh 30.35 in1027.8 mb 0.04 in1.0 mm 0.12 in3.0 mm 0.36 in9.1 mm
08:58 PM 39.8°F4.3°C 38.7°F3.7°C 96% 8.4 mph ENE13.5 kmh ENE 20.0 mph32.2 kmh 30.36 in1028.1 mb 0.04 in1.0 mm 0.00 in0.0 mm 0.36 in9.1 mm
09:03 PM 39.9°F4.4°C 38.5°F3.6°C 95% 9.4 mph E15.1 kmh E 20.0 mph32.2 kmh 30.35 in1027.8 mb 0.05 in1.3 mm 0.01 in0.3 mm 0.38 in9.7 mm
09:08 PM 39.8°F4.3°C 38.4°F3.6°C 95% 11.0 mph ENE17.7 kmh ENE 20.0 mph32.2 kmh 30.35 in1027.8 mb 0.05 in1.3 mm 0.00 in0.0 mm 0.38 in9.7 mm
09:13 PM 39.8°F4.3°C 38.5°F3.6°C 95% 10.1 mph E16.3 kmh E 22.0 mph35.4 kmh 30.35 in1027.8 mb 0.05 in1.3 mm 0.00 in0.0 mm 0.38 in9.7 mm
09:18 PM 39.8°F4.3°C 38.4°F3.6°C 95% 9.9 mph ENE15.9 kmh ENE 22.0 mph35.4 kmh 30.36 in1028.1 mb 0.05 in1.3 mm 0.00 in0.0 mm 0.38 in9.7 mm
09:23 PM 39.9°F4.4°C 38.5°F3.6°C 95% 12.0 mph E19.3 kmh E 22.0 mph35.4 kmh 30.36 in1028.1 mb 0.05 in1.3 mm 0.00 in0.0 mm 0.38 in9.7 mm
09:28 PM 39.9°F4.4°C 38.6°F3.7°C 95% 7.3 mph E11.7 kmh E 19.0 mph30.6 kmh 30.35 in1027.8 mb 0.05 in1.3 mm 0.00 in0.0 mm 0.38 in9.7 mm
09:33 PM 39.8°F4.3°C 38.5°F3.6°C 95% 10.0 mph E16.1 kmh E 19.0 mph30.6 kmh 30.35 in1027.8 mb 0.05 in1.3 mm 0.00 in0.0 mm 0.38 in9.7 mm
09:38 PM 39.9°F4.4°C 38.5°F3.6°C 95% 11.2 mph E18.0 kmh E 20.0 mph32.2 kmh 30.35 in1027.8 mb 0.05 in1.3 mm 0.00 in0.0 mm 0.38 in9.7 mm
09:43 PM 39.9°F4.4°C 38.3°F3.5°C 94% 11.7 mph E18.8 kmh E 22.0 mph35.4 kmh 30.35 in1027.8 mb 0.04 in1.0 mm 0.00 in0.0 mm 0.38 in9.7 mm
09:48 PM 39.9°F4.4°C 38.6°F3.7°C 95% 11.0 mph E17.7 kmh E 22.0 mph35.4 kmh 30.35 in1027.8 mb 0.03 in0.8 mm 0.00 in0.0 mm 0.38 in9.7 mm
09:53 PM 39.9°F4.4°C 38.6°F3.7°C 95% 10.5 mph ENE16.9 kmh ENE 22.0 mph35.4 kmh 30.34 in1027.4 mb 0.02 in0.5 mm 0.00 in0.0 mm 0.38 in9.7 mm
09:58 PM 39.9°F4.4°C 38.3°F3.5°C 94% 9.1 mph E14.6 kmh E 18.0 mph29.0 kmh 30.35 in1027.8 mb 0.01 in0.3 mm 0.00 in0.0 mm 0.38 in9.7 mm
10:03 PM 39.9°F4.4°C 38.5°F3.6°C 95% 6.3 mph E10.1 kmh E 21.0 mph33.8 kmh 30.35 in1027.8 mb 0.00 in0.0 mm 0.00 in0.0 mm 0.38 in9.7 mm
10:08 PM 39.9°F4.4°C 38.5°F3.6°C 95% 6.0 mph ENE9.7 kmh ENE 21.0 mph33.8 kmh 30.36 in1028.1 mb 0.00 in0.0 mm 0.00 in0.0 mm 0.38 in9.7 mm
10:13 PM 39.8°F4.3°C 38.5°F3.6°C 95% 7.1 mph ENE11.4 kmh ENE 21.0 mph33.8 kmh 30.36 in1028.1 mb 0.00 in0.0 mm 0.00 in0.0 mm 0.38 in9.7 mm
10:18 PM 39.8°F4.3°C 38.5°F3.6°C 95% 3.7 mph E6.0 kmh E 21.0 mph33.8 kmh 30.36 in1028.1 mb 0.00 in0.0 mm 0.00 in0.0 mm 0.38 in9.7 mm
10:23 PM 39.8°F4.3°C 38.4°F3.6°C 95% 7.4 mph ENE11.9 kmh ENE 13.0 mph20.9 kmh 30.36 in1028.1 mb 0.00 in0.0 mm 0.00 in0.0 mm 0.38 in9.7 mm
10:28 PM 39.8°F4.3°C 38.4°F3.6°C 95% 7.3 mph ENE11.7 kmh ENE 13.0 mph20.9 kmh 30.36 in1028.1 mb 0.00 in0.0 mm 0.00 in0.0 mm 0.38 in9.7 mm
10:33 PM 39.8°F4.3°C 38.5°F3.6°C 95% 9.3 mph E15.0 kmh E 15.0 mph24.1 kmh 30.35 in1027.8 mb 0.00 in0.0 mm 0.00 in0.0 mm 0.38 in9.7 mm
10:38 PM 39.8°F4.3°C 38.5°F3.6°C 95% 7.7 mph ENE12.4 kmh ENE 15.0 mph24.1 kmh 30.35 in1027.8 mb 0.00 in0.0 mm 0.00 in0.0 mm 0.38 in9.7 mm
10:43 PM 39.9°F4.4°C 38.5°F3.6°C 95% 7.1 mph ENE11.4 kmh ENE 15.0 mph24.1 kmh 30.35 in1027.8 mb 0.00 in0.0 mm 0.00 in0.0 mm 0.38 in9.7 mm
10:48 PM 39.8°F4.3°C 38.4°F3.6°C 95% 4.1 mph ENE6.6 kmh ENE 15.0 mph24.1 kmh 30.35 in1027.8 mb 0.00 in0.0 mm 0.00 in0.0 mm 0.38 in9.7 mm
10:53 PM 39.8°F4.3°C 38.4°F3.6°C 95% 4.2 mph ENE6.8 kmh ENE 14.0 mph22.5 kmh 30.35 in1027.8 mb 0.00 in0.0 mm 0.00 in0.0 mm 0.38 in9.7 mm
10:58 PM 39.8°F4.3°C 38.4°F3.6°C 95% 4.7 mph ENE7.6 kmh ENE 14.0 mph22.5 kmh 30.35 in1027.8 mb 0.00 in0.0 mm 0.00 in0.0 mm 0.38 in9.7 mm
11:03 PM 39.9°F4.4°C 38.6°F3.7°C 95% 4.6 mph ENE7.4 kmh ENE 14.0 mph22.5 kmh 30.34 in1027.4 mb 0.00 in0.0 mm 0.00 in0.0 mm 0.38 in9.7 mm
11:08 PM 39.9°F4.4°C 38.5°F3.6°C 95% 6.5 mph ENE10.5 kmh ENE 14.0 mph22.5 kmh 30.34 in1027.4 mb 0.00 in0.0 mm 0.00 in0.0 mm 0.38 in9.7 mm
11:13 PM 39.9°F4.4°C 38.5°F3.6°C 95% 6.4 mph ENE10.3 kmh ENE 14.0 mph22.5 kmh 30.34 in1027.4 mb 0.00 in0.0 mm 0.00 in0.0 mm 0.38 in9.7 mm
11:18 PM 39.8°F4.3°C 38.4°F3.6°C 95% 6.4 mph E10.3 kmh E 14.0 mph22.5 kmh 30.34 in1027.4 mb 0.00 in0.0 mm 0.00 in0.0 mm 0.38 in9.7 mm
11:23 PM 39.9°F4.4°C 38.5°F3.6°C 95% 6.0 mph ENE9.7 kmh ENE 17.0 mph27.4 kmh 30.33 in1027.1 mb 0.00 in0.0 mm 0.00 in0.0 mm 0.38 in9.7 mm
11:28 PM 39.9°F4.4°C 38.5°F3.6°C 95% 7.3 mph E11.7 kmh E 17.0 mph27.4 kmh 30.33 in1027.1 mb 0.00 in0.0 mm 0.00 in0.0 mm 0.38 in9.7 mm
11:33 PM 39.9°F4.4°C 38.5°F3.6°C 95% 7.8 mph E12.6 kmh E 17.0 mph27.4 kmh 30.34 in1027.4 mb 0.00 in0.0 mm 0.00 in0.0 mm 0.38 in9.7 mm
11:38 PM 39.9°F4.4°C 38.5°F3.6°C 95% 4.3 mph ENE6.9 kmh ENE 17.0 mph27.4 kmh 30.33 in1027.1 mb 0.01 in0.3 mm 0.12 in3.0 mm 0.39 in9.9 mm
11:43 PM 39.9°F4.4°C 38.5°F3.6°C 95% 4.3 mph ENE6.9 kmh ENE 17.0 mph27.4 kmh 30.33 in1027.1 mb 0.01 in0.3 mm 0.00 in0.0 mm 0.39 in9.9 mm
11:48 PM 39.9°F4.4°C 38.5°F3.6°C 95% 7.1 mph ENE11.4 kmh ENE 17.0 mph27.4 kmh 30.33 in1027.1 mb 0.01 in0.3 mm 0.00 in0.0 mm 0.39 in9.9 mm
11:53 PM 39.9°F4.4°C 38.5°F3.6°C 95% 8.6 mph E13.8 kmh E 17.0 mph27.4 kmh 30.33 in1027.1 mb 0.01 in0.3 mm 0.00 in0.0 mm 0.39 in9.9 mm
11:58 PM 39.9°F4.4°C 38.5°F3.6°C 95% 6.5 mph E10.5 kmh E 17.0 mph27.4 kmh 30.33 in1027.1 mb 0.01 in0.3 mm 0.00 in0.0 mm 0.39 in9.9 mm